createdAt,value
2022-09-11T09:56:52.347Z,9.23
2022-09-11T10:01:58.218Z,8.27
2022-09-11T10:07:14.235Z,9.73
2022-09-11T10:12:31.265Z,6.20
2022-09-11T10:17:38.423Z,6.43
2022-09-11T10:22:45.155Z,4.57
2022-09-11T10:28:10.121Z,4.23
2022-09-11T10:33:20.859Z,4.80
2022-09-11T10:38:41.497Z,4.23
2022-09-11T10:43:50.672Z,4.17
2022-09-11T10:49:12.163Z,3.80
2022-09-11T10:54:40.097Z,4.13
2022-09-11T11:00:12.700Z,4.23
2022-09-11T11:05:43.559Z,4.07
2022-09-11T11:11:13.444Z,4.07
2022-09-11T11:16:32.743Z,4.07
2022-09-11T11:22:20.594Z,4.00
2022-09-11T11:27:52.000Z,4.80
2022-09-11T11:33:34.144Z,3.73
2022-09-11T11:38:58.886Z,3.67
2022-09-11T11:44:07.753Z,4.07
2022-09-11T11:49:25.695Z,4.13
2022-09-11T11:54:39.324Z,3.20
2022-09-11T12:00:00.765Z,3.30
2022-09-11T12:05:26.630Z,4.27
2022-09-11T12:10:38.499Z,3.83
2022-09-11T12:16:15.469Z,3.53
2022-09-11T12:21:31.286Z,3.77
2022-09-11T12:26:36.525Z,4.40
2022-09-11T12:32:05.522Z,4.07
2022-09-11T12:37:26.114Z,7.13
2022-09-11T12:42:36.696Z,8.70
2022-09-11T12:47:44.445Z,3.73
2022-09-11T12:52:55.332Z,3.70
2022-09-11T12:58:03.625Z,3.57
2022-09-11T13:03:18.138Z,3.90
2022-09-11T13:08:27.752Z,2.73
2022-09-11T13:13:38.685Z,2.90
2022-09-11T13:18:46.847Z,2.70
2022-09-11T13:23:55.278Z,2.63
2022-09-11T13:29:02.161Z,2.10
2022-09-11T13:34:11.151Z,2.27
2022-09-11T13:39:20.499Z,3.13
2022-09-11T13:44:45.756Z,2.30
2022-09-11T13:50:08.270Z,2.00
2022-09-11T13:55:20.888Z,2.00
2022-09-11T14:00:48.226Z,1.70
2022-09-11T14:06:00.745Z,1.67
2022-09-11T14:11:17.731Z,1.50
2022-09-11T14:16:42.239Z,1.83
2022-09-11T14:21:50.564Z,1.40
2022-09-11T14:27:02.995Z,1.30
2022-09-11T14:32:34.406Z,1.70
2022-09-11T14:37:45.429Z,1.70
2022-09-11T14:42:50.850Z,1.57
2022-09-11T14:47:56.639Z,1.63
2022-09-11T14:53:01.958Z,1.50
2022-09-11T14:58:07.358Z,1.60
2022-09-11T15:03:15.712Z,1.90
2022-09-11T15:08:21.071Z,1.40
2022-09-11T15:13:27.536Z,1.53
2022-09-11T15:18:36.681Z,1.73
2022-09-11T15:23:42.066Z,4.07
2022-09-11T15:28:52.278Z,1.60
2022-09-11T15:33:57.681Z,1.60
2022-09-11T15:39:03.911Z,1.80
2022-09-11T15:44:11.646Z,1.80
2022-09-11T15:49:24.595Z,1.90
2022-09-11T15:54:32.127Z,3.60
2022-09-11T15:59:41.692Z,2.53
2022-09-11T16:04:53.743Z,2.60
2022-09-11T16:10:10.183Z,2.00
2022-09-11T16:15:30.083Z,2.10
2022-09-11T16:21:08.161Z,8.13
2022-09-11T16:26:27.210Z,4.83
2022-09-11T16:37:47.255Z,1.87
2022-09-11T16:42:57.367Z,2.33
2022-09-11T16:48:04.227Z,2.07
2022-09-11T16:53:10.469Z,3.17
2022-09-11T16:58:16.518Z,2.23
2022-09-11T17:03:25.736Z,2.20
2022-09-11T17:08:31.246Z,12.53
2022-09-11T17:13:37.390Z,2.40
2022-09-11T17:18:43.031Z,2.20
2022-09-11T17:23:53.042Z,3.63
2022-09-11T17:29:13.570Z,9.70
2022-09-11T17:34:26.523Z,5.40
2022-09-11T17:39:33.519Z,12.97
2022-09-11T17:44:40.570Z,7.23
2022-09-11T17:49:46.117Z,7.70
2022-09-11T17:54:51.647Z,5.60
2022-09-11T17:59:58.054Z,19.80
2022-09-11T18:05:09.910Z,14.37
2022-09-11T18:10:20.410Z,7.60
2022-09-11T18:15:26.635Z,5.93
2022-09-11T18:20:31.967Z,7.97
2022-09-11T18:25:41.423Z,10.93
2022-09-11T18:30:47.579Z,10.43
2022-09-11T18:35:52.996Z,8.50
2022-09-11T18:41:04.642Z,10.73
2022-09-11T18:46:12.079Z,8.30
2022-09-11T18:51:20.436Z,7.20
2022-09-11T18:56:28.578Z,3.10
2022-09-11T19:01:34.633Z,3.47
2022-09-11T19:06:41.219Z,7.93
2022-09-11T19:11:46.490Z,10.33
2022-09-11T19:16:54.031Z,12.80
2022-09-11T19:22:00.373Z,17.53
2022-09-11T19:27:05.969Z,17.67
2022-09-11T19:32:12.843Z,11.50
2022-09-11T19:37:20.215Z,16.77
2022-09-11T19:42:27.930Z,14.67
2022-09-11T19:47:33.468Z,12.73
2022-09-11T19:52:39.551Z,10.93
2022-09-11T19:57:45.412Z,20.60
2022-09-11T20:02:50.624Z,6.50
2022-09-11T20:07:57.025Z,4.50
2022-09-11T20:13:02.386Z,4.80
2022-09-11T20:18:10.833Z,7.00
2022-09-11T20:23:18.613Z,4.90
2022-09-11T20:28:24.352Z,6.50
2022-09-11T20:33:29.745Z,3.67
2022-09-11T20:38:35.736Z,3.50
2022-09-11T20:43:41.824Z,3.83
2022-09-11T20:48:51.727Z,3.87
2022-09-11T20:53:57.958Z,3.83
2022-09-11T20:59:03.561Z,3.30
2022-09-11T21:04:08.849Z,3.77
2022-09-11T21:09:14.330Z,3.17
2022-09-11T21:14:20.463Z,2.83
2022-09-11T21:19:26.088Z,4.30
2022-09-11T21:24:31.351Z,4.47
2022-09-11T21:29:37.485Z,3.70
2022-09-11T21:34:42.813Z,4.33
2022-09-11T21:39:48.144Z,2.87
2022-09-11T21:44:56.805Z,3.50
2022-09-11T21:50:03.677Z,3.33
2022-09-11T21:55:09.503Z,3.00
2022-09-11T22:00:15.272Z,3.23
2022-09-11T22:05:20.585Z,3.40
2022-09-11T22:10:26.949Z,3.00
2022-09-11T22:15:32.187Z,3.20
2022-09-11T22:20:41.978Z,2.60
2022-09-11T22:25:48.924Z,3.00
2022-09-11T22:30:54.245Z,2.80
2022-09-11T22:35:59.563Z,3.17
2022-09-11T22:41:05.660Z,2.63
2022-09-11T22:46:11.028Z,3.20
2022-09-11T22:51:16.950Z,3.20
2022-09-11T22:56:22.424Z,3.90
2022-09-11T23:01:28.261Z,2.47
2022-09-11T23:06:51.709Z,3.00
2022-09-11T23:11:57.432Z,3.77
2022-09-11T23:17:04.277Z,3.50
2022-09-11T23:22:09.607Z,3.50
2022-09-11T23:27:14.891Z,3.20
2022-09-11T23:32:20.291Z,3.20
2022-09-11T23:37:25.491Z,2.97
2022-09-11T23:42:30.893Z,3.03
2022-09-11T23:47:36.234Z,2.40
2022-09-11T23:52:41.473Z,3.20
2022-09-11T23:57:48.748Z,3.03
